sensor_id;sensor_type;location;lat;lon;timestamp;P1;durP1;ratioP1;P2;durP2;ratioP2
1471;SDS011;963;42.644;23.336;2022-12-19T00:00:15;18.27;;;12.10;;
1471;SDS011;963;42.644;23.336;2022-12-19T00:02:41;22.77;;;12.83;;
1471;SDS011;963;42.644;23.336;2022-12-19T00:05:07;18.53;;;11.10;;
1471;SDS011;963;42.644;23.336;2022-12-19T00:07:32;19.13;;;12.30;;
1471;SDS011;963;42.644;23.336;2022-12-19T00:09:57;19.90;;;12.47;;
1471;SDS011;963;42.644;23.336;2022-12-19T00:12:23;20.50;;;12.07;;
1471;SDS011;963;42.644;23.336;2022-12-19T00:14:48;20.40;;;11.40;;
1471;SDS011;963;42.644;23.336;2022-12-19T00:17:14;21.53;;;12.70;;
1471;SDS011;963;42.644;23.336;2022-12-19T00:19:39;17.37;;;11.40;;
1471;SDS011;963;42.644;23.336;2022-12-19T00:22:05;19.03;;;11.87;;
1471;SDS011;963;42.644;23.336;2022-12-19T00:24:30;21.73;;;12.50;;
1471;SDS011;963;42.644;23.336;2022-12-19T00:26:55;19.37;;;13.10;;
1471;SDS011;963;42.644;23.336;2022-12-19T00:29:21;21.33;;;13.00;;
1471;SDS011;963;42.644;23.336;2022-12-19T00:31:46;20.10;;;11.53;;
1471;SDS011;963;42.644;23.336;2022-12-19T00:34:12;19.73;;;11.80;;
1471;SDS011;963;42.644;23.336;2022-12-19T00:36:37;23.20;;;13.23;;
1471;SDS011;963;42.644;23.336;2022-12-19T00:39:03;21.13;;;12.57;;
1471;SDS011;963;42.644;23.336;2022-12-19T00:41:30;17.20;;;11.50;;
1471;SDS011;963;42.644;23.336;2022-12-19T00:43:58;20.03;;;13.40;;
1471;SDS011;963;42.644;23.336;2022-12-19T00:46:26;19.37;;;11.20;;
1471;SDS011;963;42.644;23.336;2022-12-19T00:48:52;22.17;;;13.30;;
1471;SDS011;963;42.644;23.336;2022-12-19T00:51:19;23.73;;;12.00;;
1471;SDS011;963;42.644;23.336;2022-12-19T00:53:49;23.97;;;12.40;;
1471;SDS011;963;42.644;23.336;2022-12-19T00:56:16;20.57;;;11.70;;
1471;SDS011;963;42.644;23.336;2022-12-19T00:58:43;22.67;;;13.20;;
1471;SDS011;963;42.644;23.336;2022-12-19T01:01:28;21.77;;;13.13;;
1471;SDS011;963;42.644;23.336;2022-12-19T01:03:58;19.53;;;11.97;;
1471;SDS011;963;42.644;23.336;2022-12-19T01:06:25;24.00;;;12.73;;
1471;SDS011;963;42.644;23.336;2022-12-19T01:08:51;20.20;;;12.70;;
1471;SDS011;963;42.644;23.336;2022-12-19T01:11:17;20.23;;;12.40;;
1471;SDS011;963;42.644;23.336;2022-12-19T01:14:02;18.70;;;11.90;;
1471;SDS011;963;42.644;23.336;2022-12-19T01:16:27;23.03;;;13.47;;
1471;SDS011;963;42.644;23.336;2022-12-19T01:18:53;21.50;;;12.60;;
1471;SDS011;963;42.644;23.336;2022-12-19T01:21:18;20.00;;;11.83;;
1471;SDS011;963;42.644;23.336;2022-12-19T01:23:44;20.60;;;13.20;;
1471;SDS011;963;42.644;23.336;2022-12-19T01:26:09;19.20;;;13.23;;
1471;SDS011;963;42.644;23.336;2022-12-19T01:28:34;24.03;;;13.67;;
1471;SDS011;963;42.644;23.336;2022-12-19T01:31:03;20.70;;;13.17;;
1471;SDS011;963;42.644;23.336;2022-12-19T01:33:29;18.77;;;11.43;;
1471;SDS011;963;42.644;23.336;2022-12-19T01:35:55;23.00;;;13.50;;
1471;SDS011;963;42.644;23.336;2022-12-19T01:38:20;18.47;;;11.50;;
1471;SDS011;963;42.644;23.336;2022-12-19T01:40:50;24.37;;;13.70;;
1471;SDS011;963;42.644;23.336;2022-12-19T01:43:15;23.17;;;13.67;;
1471;SDS011;963;42.644;23.336;2022-12-19T01:45:41;20.90;;;12.50;;
1471;SDS011;963;42.644;23.336;2022-12-19T01:53:39;19.73;;;11.77;;
1471;SDS011;963;42.644;23.336;2022-12-19T01:56:27;19.97;;;12.67;;
1471;SDS011;963;42.644;23.336;2022-12-19T01:58:56;20.17;;;12.00;;
1471;SDS011;963;42.644;23.336;2022-12-19T02:01:24;21.97;;;13.43;;
1471;SDS011;963;42.644;23.336;2022-12-19T02:03:50;20.83;;;13.53;;
1471;SDS011;963;42.644;23.336;2022-12-19T02:06:16;18.50;;;12.67;;
1471;SDS011;963;42.644;23.336;2022-12-19T02:08:43;25.97;;;15.20;;
1471;SDS011;963;42.644;23.336;2022-12-19T02:11:11;22.90;;;12.70;;
1471;SDS011;963;42.644;23.336;2022-12-19T02:13:36;21.20;;;12.80;;
1471;SDS011;963;42.644;23.336;2022-12-19T02:35:32;22.33;;;13.40;;
1471;SDS011;963;42.644;23.336;2022-12-19T02:40:55;19.80;;;13.77;;
1471;SDS011;963;42.644;23.336;2022-12-19T02:43:31;21.50;;;12.47;;
1471;SDS011;963;42.644;23.336;2022-12-19T02:46:03;20.67;;;12.70;;
1471;SDS011;963;42.644;23.336;2022-12-19T02:48:30;27.20;;;14.57;;
1471;SDS011;963;42.644;23.336;2022-12-19T02:50:56;19.77;;;12.87;;
1471;SDS011;963;42.644;23.336;2022-12-19T02:53:21;22.90;;;13.60;;
1471;SDS011;963;42.644;23.336;2022-12-19T02:55:48;21.00;;;13.47;;
1471;SDS011;963;42.644;23.336;2022-12-19T03:01:08;21.73;;;13.60;;
1471;SDS011;963;42.644;23.336;2022-12-19T03:06:49;21.55;;;13.38;;
1471;SDS011;963;42.644;23.336;2022-12-19T03:12:10;22.13;;;13.20;;
1471;SDS011;963;42.644;23.336;2022-12-19T03:14:42;23.73;;;15.00;;
1471;SDS011;963;42.644;23.336;2022-12-19T03:17:09;21.27;;;13.07;;
1471;SDS011;963;42.644;23.336;2022-12-19T03:19:35;23.33;;;14.57;;
1471;SDS011;963;42.644;23.336;2022-12-19T03:22:04;19.90;;;12.60;;
1471;SDS011;963;42.644;23.336;2022-12-19T03:24:29;20.53;;;12.13;;
1471;SDS011;963;42.644;23.336;2022-12-19T03:27:02;23.90;;;13.13;;
1471;SDS011;963;42.644;23.336;2022-12-19T03:29:37;22.50;;;13.57;;
1471;SDS011;963;42.644;23.336;2022-12-19T03:32:08;20.80;;;13.00;;
1471;SDS011;963;42.644;23.336;2022-12-19T03:34:40;22.97;;;14.37;;
1471;SDS011;963;42.644;23.336;2022-12-19T03:37:27;22.90;;;12.83;;
1471;SDS011;963;42.644;23.336;2022-12-19T03:39:58;24.00;;;13.07;;
1471;SDS011;963;42.644;23.336;2022-12-19T03:42:31;22.57;;;13.80;;
1471;SDS011;963;42.644;23.336;2022-12-19T03:45:20;21.20;;;13.80;;
1471;SDS011;963;42.644;23.336;2022-12-19T03:47:50;22.97;;;12.80;;
1471;SDS011;963;42.644;23.336;2022-12-19T03:50:28;21.93;;;14.90;;
1471;SDS011;963;42.644;23.336;2022-12-19T03:55:48;26.10;;;14.53;;
1471;SDS011;963;42.644;23.336;2022-12-19T03:58:28;22.50;;;13.60;;
1471;SDS011;963;42.644;23.336;2022-12-19T04:00:58;22.93;;;13.10;;
1471;SDS011;963;42.644;23.336;2022-12-19T04:03:25;25.63;;;13.80;;
1471;SDS011;963;42.644;23.336;2022-12-19T04:05:53;23.70;;;13.60;;
1471;SDS011;963;42.644;23.336;2022-12-19T04:08:19;23.60;;;13.50;;
1471;SDS011;963;42.644;23.336;2022-12-19T04:10:46;21.50;;;13.43;;
1471;SDS011;963;42.644;23.336;2022-12-19T04:13:16;25.60;;;13.90;;
1471;SDS011;963;42.644;23.336;2022-12-19T04:15:59;26.60;;;13.70;;
1471;SDS011;963;42.644;23.336;2022-12-19T04:18:36;19.67;;;13.30;;
1471;SDS011;963;42.644;23.336;2022-12-19T04:21:51;22.90;;;13.03;;
1471;SDS011;963;42.644;23.336;2022-12-19T04:24:06;24.50;;;13.73;;
1471;SDS011;963;42.644;23.336;2022-12-19T04:26:35;20.63;;;12.53;;
1471;SDS011;963;42.644;23.336;2022-12-19T04:29:03;20.03;;;12.27;;
1471;SDS011;963;42.644;23.336;2022-12-19T04:31:31;23.90;;;13.30;;
1471;SDS011;963;42.644;23.336;2022-12-19T04:33:57;22.30;;;13.30;;
1471;SDS011;963;42.644;23.336;2022-12-19T04:36:23;21.60;;;11.80;;
1471;SDS011;963;42.644;23.336;2022-12-19T04:38:50;21.57;;;13.80;;
1471;SDS011;963;42.644;23.336;2022-12-19T04:41:16;20.27;;;13.10;;
1471;SDS011;963;42.644;23.336;2022-12-19T04:43:42;25.50;;;13.97;;
1471;SDS011;963;42.644;23.336;2022-12-19T04:46:07;22.70;;;13.33;;
1471;SDS011;963;42.644;23.336;2022-12-19T04:48:36;20.80;;;13.40;;
1471;SDS011;963;42.644;23.336;2022-12-19T04:51:01;21.37;;;13.13;;
1471;SDS011;963;42.644;23.336;2022-12-19T04:53:27;24.77;;;14.10;;
1471;SDS011;963;42.644;23.336;2022-12-19T04:55:59;24.47;;;14.13;;
1471;SDS011;963;42.644;23.336;2022-12-19T04:58:26;27.77;;;14.90;;
1471;SDS011;963;42.644;23.336;2022-12-19T05:00:51;19.63;;;13.30;;
1471;SDS011;963;42.644;23.336;2022-12-19T05:03:16;24.10;;;13.77;;
1471;SDS011;963;42.644;23.336;2022-12-19T05:05:42;20.07;;;13.07;;
1471;SDS011;963;42.644;23.336;2022-12-19T05:08:07;24.70;;;13.80;;
1471;SDS011;963;42.644;23.336;2022-12-19T05:10:33;17.10;;;11.40;;
1471;SDS011;963;42.644;23.336;2022-12-19T05:13:00;25.07;;;14.67;;
1471;SDS011;963;42.644;23.336;2022-12-19T05:15:25;22.67;;;13.93;;
1471;SDS011;963;42.644;23.336;2022-12-19T05:17:51;24.20;;;13.30;;
1471;SDS011;963;42.644;23.336;2022-12-19T05:20:16;23.53;;;14.10;;
1471;SDS011;963;42.644;23.336;2022-12-19T05:22:42;23.13;;;13.30;;
1471;SDS011;963;42.644;23.336;2022-12-19T05:25:07;19.93;;;13.60;;
1471;SDS011;963;42.644;23.336;2022-12-19T05:27:33;25.73;;;14.63;;
1471;SDS011;963;42.644;23.336;2022-12-19T05:29:58;22.43;;;13.70;;
1471;SDS011;963;42.644;23.336;2022-12-19T05:32:28;27.10;;;16.53;;
1471;SDS011;963;42.644;23.336;2022-12-19T05:34:55;30.47;;;16.60;;
1471;SDS011;963;42.644;23.336;2022-12-19T05:37:20;20.20;;;12.43;;
1471;SDS011;963;42.644;23.336;2022-12-19T05:39:45;20.67;;;12.80;;
1471;SDS011;963;42.644;23.336;2022-12-19T05:42:11;22.13;;;13.70;;
1471;SDS011;963;42.644;23.336;2022-12-19T05:44:36;23.63;;;14.77;;
1471;SDS011;963;42.644;23.336;2022-12-19T05:47:02;21.80;;;12.40;;
1471;SDS011;963;42.644;23.336;2022-12-19T05:49:27;19.57;;;12.87;;
1471;SDS011;963;42.644;23.336;2022-12-19T05:51:53;23.20;;;14.73;;
1471;SDS011;963;42.644;23.336;2022-12-19T05:54:18;23.80;;;15.30;;
1471;SDS011;963;42.644;23.336;2022-12-19T05:56:43;24.57;;;15.27;;
1471;SDS011;963;42.644;23.336;2022-12-19T05:59:09;24.83;;;14.53;;
1471;SDS011;963;42.644;23.336;2022-12-19T06:01:35;21.50;;;13.20;;
1471;SDS011;963;42.644;23.336;2022-12-19T06:04:01;21.57;;;13.70;;
1471;SDS011;963;42.644;23.336;2022-12-19T06:06:27;25.70;;;14.30;;
1471;SDS011;963;42.644;23.336;2022-12-19T06:08:53;30.87;;;16.90;;
1471;SDS011;963;42.644;23.336;2022-12-19T06:11:20;22.50;;;14.40;;
1471;SDS011;963;42.644;23.336;2022-12-19T06:13:46;26.17;;;15.63;;
1471;SDS011;963;42.644;23.336;2022-12-19T06:16:13;23.17;;;14.27;;
1471;SDS011;963;42.644;23.336;2022-12-19T06:18:40;27.10;;;15.17;;
1471;SDS011;963;42.644;23.336;2022-12-19T06:21:09;23.90;;;13.43;;
1471;SDS011;963;42.644;23.336;2022-12-19T06:23:36;23.07;;;13.37;;
1471;SDS011;963;42.644;23.336;2022-12-19T06:26:03;23.27;;;14.68;;
1471;SDS011;963;42.644;23.336;2022-12-19T06:28:30;21.13;;;13.27;;
1471;SDS011;963;42.644;23.336;2022-12-19T06:30:57;24.67;;;15.27;;
1471;SDS011;963;42.644;23.336;2022-12-19T06:33:23;24.63;;;14.40;;
1471;SDS011;963;42.644;23.336;2022-12-19T06:35:56;24.30;;;13.83;;
1471;SDS011;963;42.644;23.336;2022-12-19T06:38:26;31.33;;;15.40;;
1471;SDS011;963;42.644;23.336;2022-12-19T06:40:52;24.63;;;15.13;;
1471;SDS011;963;42.644;23.336;2022-12-19T06:43:37;33.00;;;15.73;;
1471;SDS011;963;42.644;23.336;2022-12-19T06:46:02;29.80;;;14.97;;
1471;SDS011;963;42.644;23.336;2022-12-19T06:48:28;20.97;;;13.90;;
1471;SDS011;963;42.644;23.336;2022-12-19T06:50:53;22.10;;;13.57;;
1471;SDS011;963;42.644;23.336;2022-12-19T06:53:19;30.87;;;15.60;;
1471;SDS011;963;42.644;23.336;2022-12-19T06:55:45;35.37;;;15.10;;
1471;SDS011;963;42.644;23.336;2022-12-19T06:58:10;30.87;;;15.60;;
1471;SDS011;963;42.644;23.336;2022-12-19T07:00:36;26.53;;;15.90;;
1471;SDS011;963;42.644;23.336;2022-12-19T07:03:02;28.00;;;15.60;;
1471;SDS011;963;42.644;23.336;2022-12-19T07:05:30;24.67;;;15.00;;
1471;SDS011;963;42.644;23.336;2022-12-19T07:07:55;24.63;;;15.73;;
1471;SDS011;963;42.644;23.336;2022-12-19T07:10:21;25.40;;;15.77;;
1471;SDS011;963;42.644;23.336;2022-12-19T07:12:46;40.17;;;22.33;;
1471;SDS011;963;42.644;23.336;2022-12-19T07:15:12;33.50;;;16.50;;
1471;SDS011;963;42.644;23.336;2022-12-19T07:17:37;28.20;;;15.70;;
1471;SDS011;963;42.644;23.336;2022-12-19T07:20:03;27.30;;;15.83;;
1471;SDS011;963;42.644;23.336;2022-12-19T07:22:30;25.43;;;14.80;;
1471;SDS011;963;42.644;23.336;2022-12-19T07:24:58;24.83;;;14.03;;
1471;SDS011;963;42.644;23.336;2022-12-19T07:27:26;25.52;;;15.50;;
1471;SDS011;963;42.644;23.336;2022-12-19T07:29:52;23.63;;;14.83;;
1471;SDS011;963;42.644;23.336;2022-12-19T07:32:19;25.33;;;14.43;;
1471;SDS011;963;42.644;23.336;2022-12-19T07:34:44;25.87;;;16.27;;
1471;SDS011;963;42.644;23.336;2022-12-19T07:37:10;32.23;;;15.77;;
1471;SDS011;963;42.644;23.336;2022-12-19T07:39:35;33.80;;;17.10;;
1471;SDS011;963;42.644;23.336;2022-12-19T07:42:01;31.67;;;15.50;;
1471;SDS011;963;42.644;23.336;2022-12-19T07:44:26;31.27;;;19.00;;
1471;SDS011;963;42.644;23.336;2022-12-19T07:46:51;26.93;;;15.70;;
1471;SDS011;963;42.644;23.336;2022-12-19T07:49:17;27.83;;;16.87;;
1471;SDS011;963;42.644;23.336;2022-12-19T07:51:42;29.43;;;17.40;;
1471;SDS011;963;42.644;23.336;2022-12-19T07:54:08;34.97;;;19.97;;
1471;SDS011;963;42.644;23.336;2022-12-19T07:56:33;38.63;;;19.73;;
1471;SDS011;963;42.644;23.336;2022-12-19T07:58:58;38.27;;;21.10;;
1471;SDS011;963;42.644;23.336;2022-12-19T08:01:24;35.10;;;18.77;;
1471;SDS011;963;42.644;23.336;2022-12-19T08:03:49;37.03;;;19.43;;
1471;SDS011;963;42.644;23.336;2022-12-19T08:06:15;37.33;;;20.67;;
1471;SDS011;963;42.644;23.336;2022-12-19T08:08:40;36.67;;;21.60;;
1471;SDS011;963;42.644;23.336;2022-12-19T08:11:24;35.20;;;20.40;;
1471;SDS011;963;42.644;23.336;2022-12-19T08:13:53;42.07;;;20.47;;
1471;SDS011;963;42.644;23.336;2022-12-19T08:16:20;36.23;;;20.33;;
1471;SDS011;963;42.644;23.336;2022-12-19T08:18:46;37.17;;;20.80;;
1471;SDS011;963;42.644;23.336;2022-12-19T08:21:12;32.67;;;20.23;;
1471;SDS011;963;42.644;23.336;2022-12-19T08:23:37;39.43;;;21.07;;
1471;SDS011;963;42.644;23.336;2022-12-19T08:26:04;37.67;;;20.03;;
1471;SDS011;963;42.644;23.336;2022-12-19T08:28:35;37.37;;;21.60;;
1471;SDS011;963;42.644;23.336;2022-12-19T08:31:09;39.40;;;18.87;;
1471;SDS011;963;42.644;23.336;2022-12-19T08:33:39;39.07;;;20.90;;
1471;SDS011;963;42.644;23.336;2022-12-19T08:36:14;36.87;;;20.30;;
1471;SDS011;963;42.644;23.336;2022-12-19T08:38:42;31.00;;;19.40;;
1471;SDS011;963;42.644;23.336;2022-12-19T08:41:08;37.07;;;20.83;;
1471;SDS011;963;42.644;23.336;2022-12-19T08:43:34;46.90;;;22.00;;
1471;SDS011;963;42.644;23.336;2022-12-19T08:45:59;41.20;;;21.80;;
1471;SDS011;963;42.644;23.336;2022-12-19T08:48:25;36.90;;;20.17;;
1471;SDS011;963;42.644;23.336;2022-12-19T08:50:51;42.40;;;22.50;;
1471;SDS011;963;42.644;23.336;2022-12-19T08:53:18;35.90;;;21.53;;
1471;SDS011;963;42.644;23.336;2022-12-19T08:55:45;38.40;;;23.07;;
1471;SDS011;963;42.644;23.336;2022-12-19T08:58:11;32.67;;;19.50;;
1471;SDS011;963;42.644;23.336;2022-12-19T09:00:36;35.83;;;20.33;;
1471;SDS011;963;42.644;23.336;2022-12-19T09:03:03;35.30;;;20.00;;
1471;SDS011;963;42.644;23.336;2022-12-19T09:05:28;38.57;;;19.83;;
1471;SDS011;963;42.644;23.336;2022-12-19T09:07:54;30.03;;;18.30;;
1471;SDS011;963;42.644;23.336;2022-12-19T09:10:19;31.47;;;17.03;;
1471;SDS011;963;42.644;23.336;2022-12-19T09:12:45;30.87;;;17.80;;
1471;SDS011;963;42.644;23.336;2022-12-19T09:15:10;32.43;;;18.37;;
1471;SDS011;963;42.644;23.336;2022-12-19T09:17:36;31.27;;;18.30;;
1471;SDS011;963;42.644;23.336;2022-12-19T09:20:02;30.13;;;18.53;;
1471;SDS011;963;42.644;23.336;2022-12-19T09:22:27;30.77;;;17.53;;
1471;SDS011;963;42.644;23.336;2022-12-19T09:24:53;32.63;;;19.60;;
1471;SDS011;963;42.644;23.336;2022-12-19T09:27:19;31.40;;;17.57;;
1471;SDS011;963;42.644;23.336;2022-12-19T09:29:44;30.37;;;17.57;;
1471;SDS011;963;42.644;23.336;2022-12-19T09:32:10;30.33;;;16.53;;
1471;SDS011;963;42.644;23.336;2022-12-19T09:34:35;29.80;;;17.83;;
1471;SDS011;963;42.644;23.336;2022-12-19T09:37:02;33.50;;;16.57;;
1471;SDS011;963;42.644;23.336;2022-12-19T09:39:27;31.40;;;16.47;;
1471;SDS011;963;42.644;23.336;2022-12-19T09:47:26;32.40;;;17.20;;
1471;SDS011;963;42.644;23.336;2022-12-19T09:49:54;28.10;;;16.03;;
1471;SDS011;963;42.644;23.336;2022-12-19T09:52:32;38.83;;;17.63;;
1471;SDS011;963;42.644;23.336;2022-12-19T09:57:54;31.27;;;17.63;;
1471;SDS011;963;42.644;23.336;2022-12-19T10:00:21;37.23;;;18.97;;
1471;SDS011;963;42.644;23.336;2022-12-19T10:05:39;44.13;;;20.17;;
1471;SDS011;963;42.644;23.336;2022-12-19T10:08:15;31.07;;;17.40;;
1471;SDS011;963;42.644;23.336;2022-12-19T10:11:08;40.83;;;18.30;;
1471;SDS011;963;42.644;23.336;2022-12-19T10:16:28;31.93;;;18.10;;
1471;SDS011;963;42.644;23.336;2022-12-19T10:19:04;33.77;;;16.63;;
1471;SDS011;963;42.644;23.336;2022-12-19T10:21:37;35.00;;;17.77;;
1471;SDS011;963;42.644;23.336;2022-12-19T10:26:56;34.37;;;19.33;;
1471;SDS011;963;42.644;23.336;2022-12-19T10:35:00;34.80;;;18.53;;
1471;SDS011;963;42.644;23.336;2022-12-19T10:37:27;31.67;;;17.57;;
1471;SDS011;963;42.644;23.336;2022-12-19T10:45:08;29.80;;;17.37;;
1471;SDS011;963;42.644;23.336;2022-12-19T10:47:39;37.83;;;18.60;;
1471;SDS011;963;42.644;23.336;2022-12-19T10:50:04;31.00;;;16.90;;
1471;SDS011;963;42.644;23.336;2022-12-19T10:52:44;34.87;;;17.13;;
1471;SDS011;963;42.644;23.336;2022-12-19T10:55:23;27.90;;;16.43;;
1471;SDS011;963;42.644;23.336;2022-12-19T10:57:58;31.17;;;16.53;;
1471;SDS011;963;42.644;23.336;2022-12-19T11:00:24;32.27;;;17.07;;
1471;SDS011;963;42.644;23.336;2022-12-19T11:02:50;29.57;;;16.87;;
1471;SDS011;963;42.644;23.336;2022-12-19T11:08:29;33.03;;;17.83;;
1471;SDS011;963;42.644;23.336;2022-12-19T11:13:43;27.70;;;17.37;;
1471;SDS011;963;42.644;23.336;2022-12-19T11:16:10;27.27;;;16.70;;
1471;SDS011;963;42.644;23.336;2022-12-19T11:18:44;24.60;;;15.97;;
1471;SDS011;963;42.644;23.336;2022-12-19T11:21:29;24.80;;;15.10;;
1471;SDS011;963;42.644;23.336;2022-12-19T11:31:42;25.23;;;13.30;;
1471;SDS011;963;42.644;23.336;2022-12-19T11:34:14;25.30;;;14.87;;
1471;SDS011;963;42.644;23.336;2022-12-19T11:39:48;23.43;;;15.43;;
1471;SDS011;963;42.644;23.336;2022-12-19T11:42:23;23.03;;;13.90;;
1471;SDS011;963;42.644;23.336;2022-12-19T11:50:18;21.63;;;12.90;;
1471;SDS011;963;42.644;23.336;2022-12-19T11:55:46;22.17;;;12.53;;
1471;SDS011;963;42.644;23.336;2022-12-19T11:58:18;22.40;;;13.00;;
1471;SDS011;963;42.644;23.336;2022-12-19T12:00:57;24.50;;;14.20;;
1471;SDS011;963;42.644;23.336;2022-12-19T12:06:23;24.93;;;13.27;;
1471;SDS011;963;42.644;23.336;2022-12-19T12:17:30;21.73;;;13.37;;
1471;SDS011;963;42.644;23.336;2022-12-19T12:23:02;42.90;;;21.77;;
1471;SDS011;963;42.644;23.336;2022-12-19T12:28:15;29.93;;;13.70;;
1471;SDS011;963;42.644;23.336;2022-12-19T12:30:49;25.57;;;14.67;;
1471;SDS011;963;42.644;23.336;2022-12-19T12:33:34;21.30;;;12.80;;
1471;SDS011;963;42.644;23.336;2022-12-19T12:44:46;20.00;;;12.90;;
1471;SDS011;963;42.644;23.336;2022-12-19T12:47:16;19.33;;;11.97;;
1471;SDS011;963;42.644;23.336;2022-12-19T12:49:48;19.20;;;11.93;;
1471;SDS011;963;42.644;23.336;2022-12-19T12:52:45;20.70;;;14.37;;
1471;SDS011;963;42.644;23.336;2022-12-19T12:57:57;16.77;;;11.70;;
1471;SDS011;963;42.644;23.336;2022-12-19T13:03:38;16.83;;;9.57;;
1471;SDS011;963;42.644;23.336;2022-12-19T13:11:05;14.00;;;9.33;;
1471;SDS011;963;42.644;23.336;2022-12-19T13:16:58;17.53;;;12.27;;
1471;SDS011;963;42.644;23.336;2022-12-19T13:19:26;19.00;;;10.70;;
1471;SDS011;963;42.644;23.336;2022-12-19T13:35:28;14.57;;;10.20;;
1471;SDS011;963;42.644;23.336;2022-12-19T13:43:30;19.57;;;9.47;;
1471;SDS011;963;42.644;23.336;2022-12-19T13:46:21;17.77;;;10.47;;
1471;SDS011;963;42.644;23.336;2022-12-19T13:49:16;14.97;;;10.10;;
1471;SDS011;963;42.644;23.336;2022-12-19T13:51:53;13.80;;;9.70;;
1471;SDS011;963;42.644;23.336;2022-12-19T13:54:21;22.87;;;11.13;;
1471;SDS011;963;42.644;23.336;2022-12-19T13:56:51;21.50;;;11.70;;
1471;SDS011;963;42.644;23.336;2022-12-19T13:59:18;19.40;;;11.80;;
1471;SDS011;963;42.644;23.336;2022-12-19T14:01:45;22.03;;;12.13;;
1471;SDS011;963;42.644;23.336;2022-12-19T14:04:24;18.00;;;11.47;;
1471;SDS011;963;42.644;23.336;2022-12-19T14:06:55;17.03;;;10.40;;
1471;SDS011;963;42.644;23.336;2022-12-19T14:11:53;18.27;;;12.50;;
1471;SDS011;963;42.644;23.336;2022-12-19T14:14:24;22.27;;;13.60;;
1471;SDS011;963;42.644;23.336;2022-12-19T14:17:12;21.60;;;12.83;;
1471;SDS011;963;42.644;23.336;2022-12-19T14:19:41;19.73;;;11.07;;
1471;SDS011;963;42.644;23.336;2022-12-19T14:30:30;21.70;;;11.80;;
1471;SDS011;963;42.644;23.336;2022-12-19T14:33:02;19.27;;;13.43;;
1471;SDS011;963;42.644;23.336;2022-12-19T14:35:37;18.67;;;11.32;;
1471;SDS011;963;42.644;23.336;2022-12-19T14:38:11;22.88;;;12.68;;
1471;SDS011;963;42.644;23.336;2022-12-19T14:40:41;19.63;;;13.30;;
1471;SDS011;963;42.644;23.336;2022-12-19T14:43:17;25.73;;;12.47;;
1471;SDS011;963;42.644;23.336;2022-12-19T14:59:35;18.65;;;12.20;;
1471;SDS011;963;42.644;23.336;2022-12-19T15:04:58;21.23;;;13.00;;
1471;SDS011;963;42.644;23.336;2022-12-19T15:07:45;20.35;;;12.75;;
1471;SDS011;963;42.644;23.336;2022-12-19T15:12:55;19.03;;;11.60;;
1471;SDS011;963;42.644;23.336;2022-12-19T15:21:02;12.98;;;8.43;;
1471;SDS011;963;42.644;23.336;2022-12-19T15:23:30;12.60;;;8.35;;
1471;SDS011;963;42.644;23.336;2022-12-19T15:25:56;15.97;;;9.37;;
1471;SDS011;963;42.644;23.336;2022-12-19T15:28:29;16.30;;;9.73;;
1471;SDS011;963;42.644;23.336;2022-12-19T15:36:52;15.73;;;10.75;;
1471;SDS011;963;42.644;23.336;2022-12-19T15:39:19;15.23;;;10.57;;
1471;SDS011;963;42.644;23.336;2022-12-19T15:41:46;19.63;;;9.80;;
1471;SDS011;963;42.644;23.336;2022-12-19T15:46:45;16.67;;;10.50;;
1471;SDS011;963;42.644;23.336;2022-12-19T15:49:17;13.23;;;9.73;;
1471;SDS011;963;42.644;23.336;2022-12-19T15:51:44;18.40;;;11.40;;
1471;SDS011;963;42.644;23.336;2022-12-19T15:54:10;22.98;;;11.90;;
1471;SDS011;963;42.644;23.336;2022-12-19T15:56:36;17.20;;;11.23;;
1471;SDS011;963;42.644;23.336;2022-12-19T15:59:04;20.67;;;12.15;;
1471;SDS011;963;42.644;23.336;2022-12-19T16:01:49;21.15;;;12.52;;
1471;SDS011;963;42.644;23.336;2022-12-19T16:04:15;19.52;;;10.60;;
1471;SDS011;963;42.644;23.336;2022-12-19T16:06:40;22.33;;;14.20;;
1471;SDS011;963;42.644;23.336;2022-12-19T16:09:21;21.63;;;14.27;;
1471;SDS011;963;42.644;23.336;2022-12-19T16:11:49;23.70;;;13.55;;
1471;SDS011;963;42.644;23.336;2022-12-19T16:14:16;25.00;;;14.32;;
1471;SDS011;963;42.644;23.336;2022-12-19T16:16:44;33.45;;;16.00;;
1471;SDS011;963;42.644;23.336;2022-12-19T16:19:26;24.10;;;15.45;;
1471;SDS011;963;42.644;23.336;2022-12-19T16:21:53;35.20;;;16.20;;
1471;SDS011;963;42.644;23.336;2022-12-19T16:24:20;33.40;;;14.82;;
1471;SDS011;963;42.644;23.336;2022-12-19T16:26:52;28.10;;;15.43;;
1471;SDS011;963;42.644;23.336;2022-12-19T16:29:21;33.03;;;14.53;;
1471;SDS011;963;42.644;23.336;2022-12-19T16:31:49;29.60;;;15.80;;
1471;SDS011;963;42.644;23.336;2022-12-19T16:34:16;31.07;;;18.93;;
1471;SDS011;963;42.644;23.336;2022-12-19T16:36:43;27.70;;;16.20;;
1471;SDS011;963;42.644;23.336;2022-12-19T16:39:09;30.17;;;17.40;;
1471;SDS011;963;42.644;23.336;2022-12-19T16:41:35;31.60;;;16.80;;
1471;SDS011;963;42.644;23.336;2022-12-19T16:44:01;23.77;;;15.70;;
1471;SDS011;963;42.644;23.336;2022-12-19T16:46:26;30.53;;;17.03;;
1471;SDS011;963;42.644;23.336;2022-12-19T16:48:55;30.35;;;15.55;;
1471;SDS011;963;42.644;23.336;2022-12-19T16:51:25;27.02;;;15.80;;
1471;SDS011;963;42.644;23.336;2022-12-19T16:53:52;24.27;;;16.60;;
1471;SDS011;963;42.644;23.336;2022-12-19T16:56:27;27.58;;;16.08;;
1471;SDS011;963;42.644;23.336;2022-12-19T16:58:55;32.03;;;15.85;;
1471;SDS011;963;42.644;23.336;2022-12-19T17:01:23;28.40;;;15.48;;
1471;SDS011;963;42.644;23.336;2022-12-19T17:03:49;25.80;;;16.00;;
1471;SDS011;963;42.644;23.336;2022-12-19T17:06:15;25.83;;;14.70;;
1471;SDS011;963;42.644;23.336;2022-12-19T17:08:42;26.17;;;15.68;;
1471;SDS011;963;42.644;23.336;2022-12-19T17:11:22;35.47;;;18.38;;
1471;SDS011;963;42.644;23.336;2022-12-19T17:13:50;30.65;;;17.35;;
1471;SDS011;963;42.644;23.336;2022-12-19T17:16:18;31.33;;;15.65;;
1471;SDS011;963;42.644;23.336;2022-12-19T17:18:44;29.23;;;14.47;;
1471;SDS011;963;42.644;23.336;2022-12-19T17:21:14;25.97;;;15.70;;
1471;SDS011;963;42.644;23.336;2022-12-19T17:23:41;24.13;;;14.55;;
1471;SDS011;963;42.644;23.336;2022-12-19T17:26:07;30.03;;;13.07;;
1471;SDS011;963;42.644;23.336;2022-12-19T17:28:32;16.80;;;10.43;;
1471;SDS011;963;42.644;23.336;2022-12-19T17:31:01;19.92;;;10.65;;
1471;SDS011;963;42.644;23.336;2022-12-19T17:33:33;12.70;;;6.93;;
1471;SDS011;963;42.644;23.336;2022-12-19T17:36:00;11.93;;;8.13;;
1471;SDS011;963;42.644;23.336;2022-12-19T17:38:27;17.95;;;9.35;;
1471;SDS011;963;42.644;23.336;2022-12-19T17:40:53;27.27;;;15.87;;
1471;SDS011;963;42.644;23.336;2022-12-19T17:43:18;17.40;;;10.73;;
1471;SDS011;963;42.644;23.336;2022-12-19T17:45:44;14.87;;;9.37;;
1471;SDS011;963;42.644;23.336;2022-12-19T17:48:30;16.53;;;8.63;;
1471;SDS011;963;42.644;23.336;2022-12-19T17:50:56;33.80;;;20.33;;
1471;SDS011;963;42.644;23.336;2022-12-19T17:53:22;15.48;;;9.73;;
1471;SDS011;963;42.644;23.336;2022-12-19T17:55:48;14.18;;;8.48;;
1471;SDS011;963;42.644;23.336;2022-12-19T17:58:15;13.45;;;7.70;;
1471;SDS011;963;42.644;23.336;2022-12-19T18:00:41;13.87;;;8.80;;
1471;SDS011;963;42.644;23.336;2022-12-19T18:03:20;12.32;;;6.90;;
1471;SDS011;963;42.644;23.336;2022-12-19T18:05:48;38.05;;;18.70;;
1471;SDS011;963;42.644;23.336;2022-12-19T18:08:26;12.48;;;8.48;;
1471;SDS011;963;42.644;23.336;2022-12-19T18:10:54;11.90;;;7.50;;
1471;SDS011;963;42.644;23.336;2022-12-19T18:13:22;14.57;;;9.60;;